createdAt,value
2019-05-03T00:04:45.000Z,22.60
2019-05-03T00:15:27.029Z,23.30
2019-05-03T00:26:08.019Z,23.40
2019-05-03T00:36:52.485Z,26.20
2019-05-03T00:47:36.126Z,23.30
2019-05-03T00:58:22.228Z,26.20
2019-05-03T01:08:58.205Z,27.00
2019-05-03T01:19:42.986Z,27.40
2019-05-03T01:30:20.174Z,28.20
2019-05-03T01:41:05.059Z,28.30
2019-05-03T01:51:48.194Z,30.00
2019-05-03T02:02:28.991Z,32.00
2019-05-03T02:13:12.399Z,34.50
2019-05-03T02:23:49.182Z,32.60
2019-05-03T02:34:32.705Z,34.90
2019-05-03T02:45:15.472Z,33.60
2019-05-03T02:56:13.983Z,39.00
2019-05-03T03:06:38.160Z,39.50
2019-05-03T03:17:21.367Z,43.60
2019-05-03T03:28:05.419Z,45.20
2019-05-03T03:38:48.366Z,40.90
2019-05-03T03:49:32.309Z,40.00
2019-05-03T04:00:16.296Z,43.10
2019-05-03T04:10:59.269Z,42.30
2019-05-03T04:21:45.323Z,-1.00
2019-05-03T04:32:28.480Z,39.20
2019-05-03T04:43:07.415Z,41.80
2019-05-03T04:53:52.196Z,46.30
2019-05-03T05:04:35.722Z,50.00
2019-05-03T05:15:19.122Z,48.20
2019-05-03T05:26:05.477Z,45.60
2019-05-03T05:36:39.493Z,37.50
2019-05-03T05:47:21.518Z,30.30
2019-05-03T05:58:08.375Z,31.90
2019-05-03T06:08:50.174Z,39.30
2019-05-03T06:19:26.257Z,33.80
2019-05-03T06:30:11.517Z,31.80
2019-05-03T06:40:55.160Z,30.00
2019-05-03T06:51:40.007Z,29.50
2019-05-03T07:02:20.340Z,28.00
2019-05-03T07:13:08.616Z,24.20
2019-05-03T07:23:49.669Z,22.30
2019-05-03T07:34:35.304Z,18.60
2019-05-03T07:45:20.309Z,18.10
2019-05-03T07:56:05.445Z,20.20
2019-05-03T08:06:47.367Z,18.40
2019-05-03T08:17:34.617Z,17.00
2019-05-03T08:28:15.667Z,12.70
2019-05-03T08:39:00.624Z,13.00
2019-05-03T08:49:45.060Z,16.10
2019-05-03T09:00:24.849Z,15.30
2019-05-03T09:11:10.594Z,11.50
2019-05-03T09:21:54.826Z,10.60
2019-05-03T09:32:32.362Z,10.80
2019-05-03T09:43:16.295Z,7.70
2019-05-03T09:54:01.628Z,9.60
2019-05-03T10:04:45.514Z,8.60
2019-05-03T10:15:29.361Z,13.70
2019-05-03T10:26:05.100Z,10.40
2019-05-03T10:36:41.537Z,8.30
2019-05-03T10:47:25.975Z,9.00
2019-05-03T10:58:07.417Z,9.50
2019-05-03T11:08:54.628Z,11.20
2019-05-03T11:19:38.698Z,7.90
2019-05-03T11:30:20.452Z,9.60
2019-05-03T11:41:04.895Z,8.10
2019-05-03T11:51:44.630Z,8.90
2019-05-03T12:02:18.374Z,11.90
2019-05-03T12:12:58.409Z,7.40
2019-05-03T12:23:40.948Z,8.30
2019-05-03T12:34:25.587Z,7.50
2019-05-03T12:45:01.786Z,8.50
2019-05-03T12:55:45.305Z,7.60
2019-05-03T13:06:29.510Z,8.20
2019-05-03T13:17:11.313Z,6.50
2019-05-03T13:27:49.663Z,7.50
2019-05-03T13:38:31.636Z,7.50
2019-05-03T13:49:08.668Z,6.20
2019-05-03T13:59:44.861Z,10.70
2019-05-03T14:10:18.615Z,12.80
2019-05-03T14:20:55.700Z,10.40
2019-05-03T14:31:36.745Z,11.20
2019-05-03T14:42:09.490Z,12.50
2019-05-03T14:52:45.458Z,11.10
2019-05-03T15:03:21.928Z,10.70
2019-05-03T15:14:05.654Z,13.70
2019-05-03T15:24:48.747Z,11.20
2019-05-03T15:35:28.494Z,12.10
2019-05-03T15:46:05.202Z,11.00
2019-05-03T15:56:47.708Z,11.00
2019-05-03T16:07:29.538Z,12.40
2019-05-03T16:18:14.679Z,13.50
2019-05-03T16:28:55.969Z,18.00
2019-05-03T16:39:39.937Z,9.90
2019-05-03T16:50:18.900Z,14.10
2019-05-03T17:01:01.886Z,17.90
2019-05-03T17:11:42.448Z,17.90
2019-05-03T17:22:25.871Z,21.10
2019-05-03T17:33:10.604Z,17.40
2019-05-03T17:43:51.821Z,19.40
2019-05-03T17:54:35.895Z,21.80
2019-05-03T18:05:18.914Z,17.90
2019-05-03T18:16:00.672Z,21.20
2019-05-03T18:26:44.548Z,20.70
2019-05-03T18:37:17.632Z,19.70
2019-05-03T18:48:01.954Z,24.60
2019-05-03T18:58:42.548Z,23.30
2019-05-03T19:09:19.834Z,29.40
2019-05-03T19:20:04.869Z,25.20
2019-05-03T19:30:45.576Z,23.30
2019-05-03T19:41:28.787Z,24.00
2019-05-03T19:52:11.576Z,23.60
2019-05-03T20:02:51.904Z,20.70
2019-05-03T20:13:37.264Z,21.50
2019-05-03T20:24:17.603Z,23.30
2019-05-03T20:35:12.914Z,21.90
2019-05-03T20:45:39.955Z,24.60
2019-05-03T20:56:24.598Z,23.20
2019-05-03T21:07:06.954Z,27.60
2019-05-03T21:17:50.048Z,27.40
2019-05-03T21:28:30.061Z,27.30
2019-05-03T21:39:11.768Z,27.90
2019-05-03T21:49:54.909Z,33.30
2019-05-03T22:00:39.829Z,31.30
2019-05-03T22:11:25.157Z,31.40
2019-05-03T22:22:06.080Z,34.80
2019-05-03T22:32:47.802Z,31.50
2019-05-03T22:43:30.962Z,32.30
2019-05-03T22:54:15.382Z,34.80
2019-05-03T23:04:57.944Z,28.50
2019-05-03T23:15:40.639Z,31.70
2019-05-03T23:26:19.162Z,33.50
2019-05-03T23:37:01.721Z,34.60
2019-05-03T23:47:45.162Z,33.50
2019-05-03T23:58:27.904Z,33.80
